sensor_id;sensor_type;location;lat;lon;timestamp;pressure;altitude;pressure_sealevel;temperature;humidity
6349;BME280;3207;42.648;23.406;2023-07-29T00:01:34;99614.59;;;24.36;65.02
6349;BME280;3207;42.648;23.406;2023-07-29T00:04:01;99608.44;;;24.35;64.73
6349;BME280;3207;42.648;23.406;2023-07-29T00:06:28;99608.84;;;24.32;64.92
6349;BME280;3207;42.648;23.406;2023-07-29T00:08:56;99609.03;;;24.31;64.93
6349;BME280;3207;42.648;23.406;2023-07-29T00:11:23;99601.03;;;24.31;64.82
6349;BME280;3207;42.648;23.406;2023-07-29T00:13:50;99606.78;;;24.28;65.00
6349;BME280;3207;42.648;23.406;2023-07-29T00:16:17;99612.56;;;24.25;65.21
6349;BME280;3207;42.648;23.406;2023-07-29T00:18:47;99609.44;;;24.21;65.21
6349;BME280;3207;42.648;23.406;2023-07-29T00:21:14;99602.66;;;24.19;65.57
6349;BME280;3207;42.648;23.406;2023-07-29T00:23:44;99607.41;;;24.17;65.47
6349;BME280;3207;42.648;23.406;2023-07-29T00:26:13;99609.47;;;24.15;65.78
6349;BME280;3207;42.648;23.406;2023-07-29T00:28:40;99603.53;;;24.13;66.00
6349;BME280;3207;42.648;23.406;2023-07-29T00:31:06;99608.41;;;24.16;65.75
6349;BME280;3207;42.648;23.406;2023-07-29T00:33:33;99609.47;;;24.15;65.69
6349;BME280;3207;42.648;23.406;2023-07-29T00:36:00;99608.88;;;24.13;65.87
6349;BME280;3207;42.648;23.406;2023-07-29T00:38:28;99613.38;;;24.12;65.95
6349;BME280;3207;42.648;23.406;2023-07-29T00:40:56;99609.88;;;24.12;65.64
6349;BME280;3207;42.648;23.406;2023-07-29T00:43:25;99617.91;;;24.12;65.75
6349;BME280;3207;42.648;23.406;2023-07-29T00:45:52;99618.94;;;24.11;65.54
6349;BME280;3207;42.648;23.406;2023-07-29T00:48:19;99620.38;;;24.13;65.47
6349;BME280;3207;42.648;23.406;2023-07-29T00:50:46;99598.59;;;23.96;65.42
6349;BME280;3207;42.648;23.406;2023-07-29T00:53:13;99622.00;;;24.07;65.54
6349;BME280;3207;42.648;23.406;2023-07-29T00:55:40;99612.34;;;24.06;65.53
6349;BME280;3207;42.648;23.406;2023-07-29T00:58:08;99616.03;;;24.05;65.68
6349;BME280;3207;42.648;23.406;2023-07-29T01:00:36;99612.16;;;24.01;65.68
6349;BME280;3207;42.648;23.406;2023-07-29T01:03:03;99607.84;;;24.00;65.84
6349;BME280;3207;42.648;23.406;2023-07-29T01:05:36;99610.31;;;24.02;65.64
6349;BME280;3207;42.648;23.406;2023-07-29T01:08:10;99612.97;;;23.95;66.04
6349;BME280;3207;42.648;23.406;2023-07-29T01:10:46;99611.34;;;23.94;65.98
6349;BME280;3207;42.648;23.406;2023-07-29T01:13:22;99600.66;;;23.94;66.03
6349;BME280;3207;42.648;23.406;2023-07-29T01:15:55;99604.78;;;23.90;66.29
6349;BME280;3207;42.648;23.406;2023-07-29T01:18:28;99608.50;;;23.89;66.60
6349;BME280;3207;42.648;23.406;2023-07-29T01:20:59;99608.88;;;23.86;66.83
6349;BME280;3207;42.648;23.406;2023-07-29T01:23:29;99579.31;;;23.75;66.82
6349;BME280;3207;42.648;23.406;2023-07-29T01:25:56;99606.03;;;23.81;66.94
6349;BME280;3207;42.648;23.406;2023-07-29T01:28:23;99546.13;;;23.51;66.99
6349;BME280;3207;42.648;23.406;2023-07-29T01:30:55;99603.16;;;23.76;67.38
6349;BME280;3207;42.648;23.406;2023-07-29T01:33:26;99582.44;;;23.58;67.74
6349;BME280;3207;42.648;23.406;2023-07-29T01:35:57;99601.31;;;23.63;68.36
6349;BME280;3207;42.648;23.406;2023-07-29T01:38:30;99590.84;;;23.62;68.73
6349;BME280;3207;42.648;23.406;2023-07-29T01:41:01;99590.03;;;23.55;69.27
6349;BME280;3207;42.648;23.406;2023-07-29T01:43:28;99584.69;;;23.55;69.58
6349;BME280;3207;42.648;23.406;2023-07-29T01:45:55;99588.38;;;23.54;69.84
6349;BME280;3207;42.648;23.406;2023-07-29T01:48:22;99578.91;;;23.45;70.58
6349;BME280;3207;42.648;23.406;2023-07-29T01:50:49;99589.38;;;23.40;70.67
6349;BME280;3207;42.648;23.406;2023-07-29T01:53:17;99588.97;;;23.29;71.24
6349;BME280;3207;42.648;23.406;2023-07-29T01:55:45;99578.91;;;23.25;71.34
6349;BME280;3207;42.648;23.406;2023-07-29T01:58:11;99580.16;;;23.29;71.37
6349;BME280;3207;42.648;23.406;2023-07-29T02:00:39;99575.19;;;23.32;71.49
6349;BME280;3207;42.648;23.406;2023-07-29T02:03:06;99586.50;;;23.34;71.46
6349;BME280;3207;42.648;23.406;2023-07-29T02:05:33;99584.25;;;23.38;71.18
6349;BME280;3207;42.648;23.406;2023-07-29T02:08:00;99581.38;;;23.40;71.33
6349;BME280;3207;42.648;23.406;2023-07-29T02:10:27;99591.44;;;23.38;71.16
6349;BME280;3207;42.648;23.406;2023-07-29T02:12:55;99583.81;;;23.34;71.25
6349;BME280;3207;42.648;23.406;2023-07-29T02:15:22;99567.41;;;23.18;71.32
6349;BME280;3207;42.648;23.406;2023-07-29T02:17:50;99591.41;;;23.24;71.67
6349;BME280;3207;42.648;23.406;2023-07-29T02:20:17;99577.03;;;23.12;72.14
6349;BME280;3207;42.648;23.406;2023-07-29T02:22:44;99565.94;;;23.02;72.18
6349;BME280;3207;42.648;23.406;2023-07-29T02:25:10;99584.22;;;23.12;72.41
6349;BME280;3207;42.648;23.406;2023-07-29T02:27:37;99578.88;;;23.05;72.64
6349;BME280;3207;42.648;23.406;2023-07-29T02:30:07;99585.03;;;23.06;72.73
6349;BME280;3207;42.648;23.406;2023-07-29T02:32:35;99577.00;;;22.99;73.00
6349;BME280;3207;42.648;23.406;2023-07-29T02:35:01;99589.53;;;22.98;72.95
6349;BME280;3207;42.648;23.406;2023-07-29T02:37:28;99587.91;;;22.97;73.08
6349;BME280;3207;42.648;23.406;2023-07-29T02:39:55;99577.81;;;22.86;73.28
6349;BME280;3207;42.648;23.406;2023-07-29T02:42:22;99581.31;;;22.87;73.48
6349;BME280;3207;42.648;23.406;2023-07-29T02:44:49;99580.06;;;22.83;73.79
6349;BME280;3207;42.648;23.406;2023-07-29T02:47:17;99591.34;;;22.85;73.82
6349;BME280;3207;42.648;23.406;2023-07-29T02:49:44;99586.84;;;22.85;73.98
6349;BME280;3207;42.648;23.406;2023-07-29T02:52:11;99593.81;;;22.86;73.87
6349;BME280;3207;42.648;23.406;2023-07-29T02:54:38;99596.69;;;22.85;74.22
6349;BME280;3207;42.648;23.406;2023-07-29T02:57:05;99597.06;;;22.82;74.23
6349;BME280;3207;42.648;23.406;2023-07-29T02:59:32;99597.25;;;22.80;74.32
6349;BME280;3207;42.648;23.406;2023-07-29T03:01:58;99590.50;;;22.78;74.47
6349;BME280;3207;42.648;23.406;2023-07-29T03:04:27;99593.19;;;22.78;74.50
6349;BME280;3207;42.648;23.406;2023-07-29T03:06:53;99588.03;;;22.76;74.48
6349;BME280;3207;42.648;23.406;2023-07-29T03:09:20;99588.59;;;22.72;74.59
6349;BME280;3207;42.648;23.406;2023-07-29T03:11:47;99592.56;;;22.76;74.68
6349;BME280;3207;42.648;23.406;2023-07-29T03:14:14;99594.19;;;22.77;74.77
6349;BME280;3207;42.648;23.406;2023-07-29T03:16:41;99598.50;;;22.78;74.83
6349;BME280;3207;42.648;23.406;2023-07-29T03:19:07;99604.63;;;22.78;74.66
6349;BME280;3207;42.648;23.406;2023-07-29T03:21:36;99604.03;;;22.76;74.77
6349;BME280;3207;42.648;23.406;2023-07-29T03:24:03;99607.88;;;22.74;74.98
6349;BME280;3207;42.648;23.406;2023-07-29T03:26:29;99613.22;;;22.74;75.19
6349;BME280;3207;42.648;23.406;2023-07-29T03:28:56;99611.56;;;22.73;75.43
6349;BME280;3207;42.648;23.406;2023-07-29T03:31:23;99607.88;;;22.67;75.49
6349;BME280;3207;42.648;23.406;2023-07-29T03:33:50;99620.75;;;22.63;75.58
6349;BME280;3207;42.648;23.406;2023-07-29T03:36:17;99619.75;;;22.64;75.76
6349;BME280;3207;42.648;23.406;2023-07-29T03:38:46;99623.81;;;22.60;76.16
6349;BME280;3207;42.648;23.406;2023-07-29T03:41:12;99631.19;;;22.58;76.30
6349;BME280;3207;42.648;23.406;2023-07-29T03:43:39;99625.84;;;22.58;76.39
6349;BME280;3207;42.648;23.406;2023-07-29T03:46:06;99626.88;;;22.57;76.52
6349;BME280;3207;42.648;23.406;2023-07-29T03:48:33;99635.91;;;22.56;76.63
6349;BME280;3207;42.648;23.406;2023-07-29T03:51:00;99638.34;;;22.58;76.47
6349;BME280;3207;42.648;23.406;2023-07-29T03:53:29;99643.47;;;22.59;76.67
6349;BME280;3207;42.648;23.406;2023-07-29T03:56:00;99642.25;;;22.55;76.71
6349;BME280;3207;42.648;23.406;2023-07-29T03:58:27;99636.91;;;22.55;76.67
6349;BME280;3207;42.648;23.406;2023-07-29T04:00:54;99639.38;;;22.57;76.95
6349;BME280;3207;42.648;23.406;2023-07-29T04:03:20;99643.91;;;22.56;76.89
6349;BME280;3207;42.648;23.406;2023-07-29T04:05:47;99644.69;;;22.57;76.70
6349;BME280;3207;42.648;23.406;2023-07-29T04:08:14;99640.81;;;22.59;76.79
6349;BME280;3207;42.648;23.406;2023-07-29T04:10:41;99641.44;;;22.61;76.55
6349;BME280;3207;42.648;23.406;2023-07-29T04:13:09;99647.16;;;22.58;76.74
6349;BME280;3207;42.648;23.406;2023-07-29T04:15:36;99638.56;;;22.56;76.90
6349;BME280;3207;42.648;23.406;2023-07-29T04:18:03;99633.63;;;22.53;77.21
6349;BME280;3207;42.648;23.406;2023-07-29T04:20:30;99643.91;;;22.56;77.36
6349;BME280;3207;42.648;23.406;2023-07-29T04:22:56;99637.31;;;22.59;77.22
6349;BME280;3207;42.648;23.406;2023-07-29T04:25:29;99635.66;;;22.51;77.53
6349;BME280;3207;42.648;23.406;2023-07-29T04:27:56;99645.06;;;22.47;78.02
6349;BME280;3207;42.648;23.406;2023-07-29T04:30:25;99637.28;;;22.46;78.05
6349;BME280;3207;42.648;23.406;2023-07-29T04:32:51;99641.16;;;22.43;78.26
6349;BME280;3207;42.648;23.406;2023-07-29T04:35:18;99650.00;;;22.50;77.94
6349;BME280;3207;42.648;23.406;2023-07-29T04:37:45;99649.63;;;22.53;78.00
6349;BME280;3207;42.648;23.406;2023-07-29T04:40:13;99668.47;;;22.58;77.75
6349;BME280;3207;42.648;23.406;2023-07-29T04:42:40;99659.53;;;22.66;77.44
6349;BME280;3207;42.648;23.406;2023-07-29T04:45:07;99659.28;;;22.68;77.37
6349;BME280;3207;42.648;23.406;2023-07-29T04:47:36;99660.00;;;22.76;77.29
6349;BME280;3207;42.648;23.406;2023-07-29T04:50:03;99661.03;;;22.82;77.13
6349;BME280;3207;42.648;23.406;2023-07-29T04:52:31;99657.19;;;22.91;76.66
6349;BME280;3207;42.648;23.406;2023-07-29T04:54:58;99661.72;;;22.97;76.48
6349;BME280;3207;42.648;23.406;2023-07-29T04:57:25;99655.38;;;22.98;76.36
6349;BME280;3207;42.648;23.406;2023-07-29T04:59:51;99663.38;;;23.11;75.97
6349;BME280;3207;42.648;23.406;2023-07-29T05:02:18;99662.59;;;23.17;75.98
6349;BME280;3207;42.648;23.406;2023-07-29T05:04:47;99671.22;;;23.26;75.71
6349;BME280;3207;42.648;23.406;2023-07-29T05:07:14;99670.03;;;23.28;75.71
6349;BME280;3207;42.648;23.406;2023-07-29T05:09:41;99670.84;;;23.35;75.33
6349;BME280;3207;42.648;23.406;2023-07-29T05:12:08;99673.75;;;23.47;75.01
6349;BME280;3207;42.648;23.406;2023-07-29T05:14:35;99671.53;;;23.57;74.66
6349;BME280;3207;42.648;23.406;2023-07-29T05:17:02;99666.81;;;23.66;74.31
6349;BME280;3207;42.648;23.406;2023-07-29T05:19:29;99669.50;;;23.73;74.02
6349;BME280;3207;42.648;23.406;2023-07-29T05:21:57;99677.09;;;23.82;73.74
6349;BME280;3207;42.648;23.406;2023-07-29T05:24:24;99667.63;;;23.86;73.32
6349;BME280;3207;42.648;23.406;2023-07-29T05:26:51;99677.09;;;24.02;73.08
6349;BME280;3207;42.648;23.406;2023-07-29T05:29:17;99681.16;;;24.18;72.24
6349;BME280;3207;42.648;23.406;2023-07-29T05:31:44;99684.28;;;24.34;71.56
6349;BME280;3207;42.648;23.406;2023-07-29T05:34:11;99680.94;;;24.52;70.86
6349;BME280;3207;42.648;23.406;2023-07-29T05:36:38;99681.53;;;24.67;70.38
6349;BME280;3207;42.648;23.406;2023-07-29T05:39:07;99670.38;;;24.77;69.71
6349;BME280;3207;42.648;23.406;2023-07-29T05:41:34;99685.72;;;25.01;69.00
6349;BME280;3207;42.648;23.406;2023-07-29T05:44:01;99677.84;;;25.13;68.39
6349;BME280;3207;42.648;23.406;2023-07-29T05:46:27;99688.47;;;25.26;68.12
6349;BME280;3207;42.648;23.406;2023-07-29T05:48:54;99683.66;;;25.41;67.27
6349;BME280;3207;42.648;23.406;2023-07-29T05:51:21;99682.75;;;25.61;66.89
6349;BME280;3207;42.648;23.406;2023-07-29T05:53:48;99688.75;;;25.81;66.36
6349;BME280;3207;42.648;23.406;2023-07-29T05:56:16;99692.31;;;26.00;65.44
6349;BME280;3207;42.648;23.406;2023-07-29T05:58:43;99687.81;;;26.18;64.67
6349;BME280;3207;42.648;23.406;2023-07-29T06:01:10;99688.72;;;26.37;64.14
6349;BME280;3207;42.648;23.406;2023-07-29T06:03:37;99687.91;;;26.55;63.42
6349;BME280;3207;42.648;23.406;2023-07-29T06:06:04;99678.66;;;26.69;62.20
6349;BME280;3207;42.648;23.406;2023-07-29T06:08:31;99681.03;;;26.77;62.12
6349;BME280;3207;42.648;23.406;2023-07-29T06:10:59;99681.16;;;26.82;61.87
6349;BME280;3207;42.648;23.406;2023-07-29T06:13:27;99689.38;;;26.87;61.74
6349;BME280;3207;42.648;23.406;2023-07-29T06:15:54;99696.81;;;26.85;61.47
6349;BME280;3207;42.648;23.406;2023-07-29T06:18:21;99696.00;;;26.85;61.51
6349;BME280;3207;42.648;23.406;2023-07-29T06:20:48;99699.28;;;26.87;61.16
6349;BME280;3207;42.648;23.406;2023-07-29T06:23:15;99694.34;;;26.84;60.64
6349;BME280;3207;42.648;23.406;2023-07-29T06:25:42;99701.59;;;26.83;60.85
6349;BME280;3207;42.648;23.406;2023-07-29T06:28:09;99701.00;;;26.81;61.22
6349;BME280;3207;42.648;23.406;2023-07-29T06:30:37;99703.22;;;26.84;61.33
6349;BME280;3207;42.648;23.406;2023-07-29T06:33:03;99708.97;;;26.88;60.77
6349;BME280;3207;42.648;23.406;2023-07-29T06:35:30;99707.72;;;26.90;60.62
6349;BME280;3207;42.648;23.406;2023-07-29T06:37:57;99712.41;;;26.95;60.54
6349;BME280;3207;42.648;23.406;2023-07-29T06:40:24;99708.16;;;26.87;60.45
6349;BME280;3207;42.648;23.406;2023-07-29T06:42:51;99716.59;;;26.91;60.97
6349;BME280;3207;42.648;23.406;2023-07-29T06:45:18;99713.25;;;26.95;60.66
6349;BME280;3207;42.648;23.406;2023-07-29T06:47:46;99714.03;;;27.14;60.22
6349;BME280;3207;42.648;23.406;2023-07-29T06:50:13;99687.41;;;27.13;59.49
6349;BME280;3207;42.648;23.406;2023-07-29T06:52:40;99710.03;;;27.35;59.29
6349;BME280;3207;42.648;23.406;2023-07-29T06:55:07;99705.44;;;27.54;58.90
6349;BME280;3207;42.648;23.406;2023-07-29T06:57:34;99713.53;;;27.65;57.48
6349;BME280;3207;42.648;23.406;2023-07-29T07:00:01;99702.72;;;27.72;57.81
6349;BME280;3207;42.648;23.406;2023-07-29T07:02:28;99704.38;;;27.85;57.55
6349;BME280;3207;42.648;23.406;2023-07-29T07:04:57;99699.34;;;28.00;56.81
6349;BME280;3207;42.648;23.406;2023-07-29T07:07:23;99701.59;;;28.15;56.57
6349;BME280;3207;42.648;23.406;2023-07-29T07:09:50;99705.47;;;28.30;56.34
6349;BME280;3207;42.648;23.406;2023-07-29T07:12:17;99697.75;;;28.46;55.28
6349;BME280;3207;42.648;23.406;2023-07-29T07:14:44;99695.75;;;28.53;54.93
6349;BME280;3207;42.648;23.406;2023-07-29T07:17:11;99694.25;;;28.57;54.83
6349;BME280;3207;42.648;23.406;2023-07-29T07:19:37;99690.50;;;28.58;54.52
6349;BME280;3207;42.648;23.406;2023-07-29T07:22:05;99692.00;;;28.54;55.29
6349;BME280;3207;42.648;23.406;2023-07-29T07:24:32;99693.28;;;28.63;55.30
6349;BME280;3207;42.648;23.406;2023-07-29T07:26:59;99686.75;;;28.70;54.58
6349;BME280;3207;42.648;23.406;2023-07-29T07:29:26;99689.66;;;28.69;54.06
6349;BME280;3207;42.648;23.406;2023-07-29T07:31:54;99678.78;;;28.64;54.02
6349;BME280;3207;42.648;23.406;2023-07-29T07:34:21;99673.97;;;28.66;54.06
6349;BME280;3207;42.648;23.406;2023-07-29T07:36:48;99679.72;;;28.69;54.44
6349;BME280;3207;42.648;23.406;2023-07-29T07:39:17;99688.47;;;28.76;54.32
6349;BME280;3207;42.648;23.406;2023-07-29T07:41:43;99681.31;;;28.82;54.21
6349;BME280;3207;42.648;23.406;2023-07-29T07:44:10;99698.03;;;28.96;53.80
6349;BME280;3207;42.648;23.406;2023-07-29T07:46:40;99687.03;;;28.97;53.40
6349;BME280;3207;42.648;23.406;2023-07-29T07:49:07;99694.13;;;29.03;54.03
6349;BME280;3207;42.648;23.406;2023-07-29T07:51:34;99683.00;;;29.11;53.26
6349;BME280;3207;42.648;23.406;2023-07-29T07:54:01;99685.97;;;29.27;52.47
6349;BME280;3207;42.648;23.406;2023-07-29T07:56:29;99688.19;;;29.30;52.74
6349;BME280;3207;42.648;23.406;2023-07-29T07:58:55;99689.09;;;29.35;52.80
6349;BME280;3207;42.648;23.406;2023-07-29T08:01:22;99675.81;;;29.45;52.65
6349;BME280;3207;42.648;23.406;2023-07-29T08:03:49;99686.13;;;29.48;52.62
6349;BME280;3207;42.648;23.406;2023-07-29T08:06:16;99684.66;;;29.58;52.30
6349;BME280;3207;42.648;23.406;2023-07-29T08:08:43;99687.81;;;29.66;51.87
6349;BME280;3207;42.648;23.406;2023-07-29T08:11:10;99692.75;;;29.58;52.22
6349;BME280;3207;42.648;23.406;2023-07-29T08:13:38;99696.16;;;29.25;53.31
6349;BME280;3207;42.648;23.406;2023-07-29T08:16:05;99692.34;;;29.21;53.16
6349;BME280;3207;42.648;23.406;2023-07-29T08:18:32;99685.25;;;29.43;53.12
6349;BME280;3207;42.648;23.406;2023-07-29T08:21:00;99684.53;;;29.64;52.71
6349;BME280;3207;42.648;23.406;2023-07-29T08:23:29;99697.03;;;29.87;51.67
6349;BME280;3207;42.648;23.406;2023-07-29T08:26:00;99699.56;;;29.94;52.28
6349;BME280;3207;42.648;23.406;2023-07-29T08:28:28;99703.38;;;30.31;49.71
6349;BME280;3207;42.648;23.406;2023-07-29T08:30:56;99697.06;;;30.59;48.93
6349;BME280;3207;42.648;23.406;2023-07-29T08:33:24;99699.53;;;30.61;47.81
6349;BME280;3207;42.648;23.406;2023-07-29T08:35:51;99697.94;;;30.65;48.38
6349;BME280;3207;42.648;23.406;2023-07-29T08:38:18;99694.88;;;30.78;48.49
6349;BME280;3207;42.648;23.406;2023-07-29T08:40:48;99700.59;;;30.81;47.58
6349;BME280;3207;42.648;23.406;2023-07-29T08:43:19;99704.41;;;30.85;47.05
6349;BME280;3207;42.648;23.406;2023-07-29T08:45:46;99695.97;;;31.25;46.49
6349;BME280;3207;42.648;23.406;2023-07-29T08:48:19;99700.38;;;31.85;43.95
6349;BME280;3207;42.648;23.406;2023-07-29T08:50:49;99697.03;;;32.47;43.08
6349;BME280;3207;42.648;23.406;2023-07-29T08:53:17;99695.38;;;32.93;41.67
6349;BME280;3207;42.648;23.406;2023-07-29T08:55:44;99697.84;;;33.10;41.25
6349;BME280;3207;42.648;23.406;2023-07-29T08:58:11;99693.06;;;33.42;40.67
6349;BME280;3207;42.648;23.406;2023-07-29T09:00:39;99692.28;;;33.52;39.82
6349;BME280;3207;42.648;23.406;2023-07-29T09:03:06;99687.03;;;33.15;40.77
6349;BME280;3207;42.648;23.406;2023-07-29T09:05:34;99679.25;;;33.39;40.71
6349;BME280;3207;42.648;23.406;2023-07-29T09:08:02;99687.38;;;33.49;40.14
6349;BME280;3207;42.648;23.406;2023-07-29T09:10:35;99685.78;;;33.58;39.90
6349;BME280;3207;42.648;23.406;2023-07-29T09:13:02;99688.22;;;34.10;38.39
6349;BME280;3207;42.648;23.406;2023-07-29T09:15:29;99690.94;;;34.10;38.77
6349;BME280;3207;42.648;23.406;2023-07-29T09:17:57;99682.28;;;33.83;39.90
6349;BME280;3207;42.648;23.406;2023-07-29T09:20:25;99689.28;;;34.14;38.73
6349;BME280;3207;42.648;23.406;2023-07-29T09:22:54;99687.66;;;34.24;38.64
6349;BME280;3207;42.648;23.406;2023-07-29T09:25:25;99690.38;;;34.13;38.83
6349;BME280;3207;42.648;23.406;2023-07-29T09:27:52;99695.81;;;34.19;38.42
6349;BME280;3207;42.648;23.406;2023-07-29T09:30:19;99693.56;;;34.61;37.99
6349;BME280;3207;42.648;23.406;2023-07-29T09:32:46;99700.97;;;35.10;37.07
6349;BME280;3207;42.648;23.406;2023-07-29T09:35:13;99700.31;;;35.33;36.90
6349;BME280;3207;42.648;23.406;2023-07-29T09:37:40;99701.81;;;35.05;37.23
6349;BME280;3207;42.648;23.406;2023-07-29T09:40:13;99693.00;;;34.64;38.50
6349;BME280;3207;42.648;23.406;2023-07-29T09:42:47;99691.44;;;34.43;38.95
6349;BME280;3207;42.648;23.406;2023-07-29T09:45:19;99685.75;;;34.34;38.97
6349;BME280;3207;42.648;23.406;2023-07-29T09:47:46;99685.22;;;34.17;38.93
6349;BME280;3207;42.648;23.406;2023-07-29T09:50:13;99683.88;;;34.04;39.26
6349;BME280;3207;42.648;23.406;2023-07-29T09:52:41;99674.13;;;34.08;39.10
6349;BME280;3207;42.648;23.406;2023-07-29T09:55:10;99680.38;;;33.94;39.76
6349;BME280;3207;42.648;23.406;2023-07-29T09:57:38;99677.69;;;33.89;39.29
6349;BME280;3207;42.648;23.406;2023-07-29T10:00:06;99684.94;;;34.13;38.01
6349;BME280;3207;42.648;23.406;2023-07-29T10:02:37;99686.56;;;34.35;37.39
6349;BME280;3207;42.648;23.406;2023-07-29T10:05:06;99680.06;;;34.15;37.75
6349;BME280;3207;42.648;23.406;2023-07-29T10:07:33;99676.84;;;33.93;37.64
6349;BME280;3207;42.648;23.406;2023-07-29T10:10:01;99671.97;;;33.85;38.59
6349;BME280;3207;42.648;23.406;2023-07-29T10:12:30;99673.59;;;33.96;38.90
6349;BME280;3207;42.648;23.406;2023-07-29T10:14:59;99675.78;;;33.79;38.97
6349;BME280;3207;42.648;23.406;2023-07-29T10:17:26;99664.34;;;33.52;39.85
6349;BME280;3207;42.648;23.406;2023-07-29T10:19:54;99668.69;;;33.58;40.42
6349;BME280;3207;42.648;23.406;2023-07-29T10:22:25;99665.19;;;33.77;39.42
6349;BME280;3207;42.648;23.406;2023-07-29T10:24:54;99662.75;;;33.81;38.54
6349;BME280;3207;42.648;23.406;2023-07-29T10:27:24;99666.00;;;33.93;38.32
6349;BME280;3207;42.648;23.406;2023-07-29T10:29:55;99658.94;;;33.67;39.04
6349;BME280;3207;42.648;23.406;2023-07-29T10:32:25;99671.41;;;33.68;39.84
6349;BME280;3207;42.648;23.406;2023-07-29T10:34:53;99674.97;;;33.89;38.01
6349;BME280;3207;42.648;23.406;2023-07-29T10:37:20;99683.88;;;34.04;37.18
6349;BME280;3207;42.648;23.406;2023-07-29T10:39:53;99668.13;;;34.22;36.99
6349;BME280;3207;42.648;23.406;2023-07-29T10:42:21;99667.03;;;34.17;36.94
6349;BME280;3207;42.648;23.406;2023-07-29T10:44:49;99665.97;;;34.29;37.05
6349;BME280;3207;42.648;23.406;2023-07-29T10:47:20;99670.28;;;34.40;35.24
6349;BME280;3207;42.648;23.406;2023-07-29T10:49:48;99672.00;;;34.90;35.31
6349;BME280;3207;42.648;23.406;2023-07-29T10:52:28;99674.97;;;34.94;35.60
6349;BME280;3207;42.648;23.406;2023-07-29T10:54:55;99678.34;;;35.19;33.36
6349;BME280;3207;42.648;23.406;2023-07-29T10:57:31;99670.59;;;35.42;32.30
6349;BME280;3207;42.648;23.406;2023-07-29T10:59:59;99664.00;;;35.09;33.81
6349;BME280;3207;42.648;23.406;2023-07-29T11:02:30;99670.31;;;35.48;33.27
6349;BME280;3207;42.648;23.406;2023-07-29T11:04:58;99664.63;;;35.40;33.89
6349;BME280;3207;42.648;23.406;2023-07-29T11:07:25;99657.22;;;35.50;33.55
6349;BME280;3207;42.648;23.406;2023-07-29T11:09:57;99656.41;;;35.84;33.03
6349;BME280;3207;42.648;23.406;2023-07-29T11:12:41;99652.13;;;35.73;33.63
6349;BME280;3207;42.648;23.406;2023-07-29T11:15:18;99655.13;;;36.05;33.65
6349;BME280;3207;42.648;23.406;2023-07-29T11:17:48;99659.13;;;36.13;34.39
6349;BME280;3207;42.648;23.406;2023-07-29T11:20:16;99659.53;;;36.54;33.25
6349;BME280;3207;42.648;23.406;2023-07-29T11:22:44;99660.41;;;36.68;33.02
6349;BME280;3207;42.648;23.406;2023-07-29T11:25:12;99647.72;;;36.82;32.13
6349;BME280;3207;42.648;23.406;2023-07-29T11:27:39;99648.63;;;36.96;31.75
6349;BME280;3207;42.648;23.406;2023-07-29T11:30:08;99633.75;;;37.26;31.78
6349;BME280;3207;42.648;23.406;2023-07-29T11:32:36;99642.28;;;37.38;30.86
6349;BME280;3207;42.648;23.406;2023-07-29T11:35:06;99640.84;;;37.27;30.59
6349;BME280;3207;42.648;23.406;2023-07-29T11:37:34;99644.56;;;37.13;31.91
6349;BME280;3207;42.648;23.406;2023-07-29T11:40:02;99629.31;;;36.93;31.66
6349;BME280;3207;42.648;23.406;2023-07-29T11:42:31;99629.75;;;37.00;31.22
6349;BME280;3207;42.648;23.406;2023-07-29T11:44:58;99637.41;;;36.79;31.51
6349;BME280;3207;42.648;23.406;2023-07-29T11:47:25;99635.72;;;36.59;31.76
6349;BME280;3207;42.648;23.406;2023-07-29T11:49:52;99628.94;;;36.99;33.63
6349;BME280;3207;42.648;23.406;2023-07-29T11:52:20;99639.09;;;37.13;33.73
6349;BME280;3207;42.648;23.406;2023-07-29T11:54:48;99630.81;;;37.23;32.99
6349;BME280;3207;42.648;23.406;2023-07-29T11:57:17;99638.06;;;37.46;32.79
6349;BME280;3207;42.648;23.406;2023-07-29T11:59:45;99635.72;;;36.83;34.63
6349;BME280;3207;42.648;23.406;2023-07-29T12:02:14;99630.63;;;36.77;33.50
6349;BME280;3207;42.648;23.406;2023-07-29T12:04:51;99610.53;;;36.49;33.64
6349;BME280;3207;42.648;23.406;2023-07-29T12:07:19;99627.16;;;36.47;33.41
6349;BME280;3207;42.648;23.406;2023-07-29T12:09:53;99621.16;;;36.26;33.93
6349;BME280;3207;42.648;23.406;2023-07-29T12:12:22;99612.16;;;36.74;33.91
6349;BME280;3207;42.648;23.406;2023-07-29T12:14:49;99612.00;;;37.02;32.37
6349;BME280;3207;42.648;23.406;2023-07-29T12:17:16;99606.53;;;37.02;33.53
6349;BME280;3207;42.648;23.406;2023-07-29T12:19:42;99604.88;;;37.25;33.38
6349;BME280;3207;42.648;23.406;2023-07-29T12:22:10;99606.97;;;37.47;31.37
6349;BME280;3207;42.648;23.406;2023-07-29T12:24:39;99598.00;;;37.28;31.48
6349;BME280;3207;42.648;23.406;2023-07-29T12:27:10;99602.09;;;37.44;31.46
6349;BME280;3207;42.648;23.406;2023-07-29T12:29:40;99601.25;;;36.50;33.84
6349;BME280;3207;42.648;23.406;2023-07-29T12:32:08;99598.72;;;36.35;34.49
6349;BME280;3207;42.648;23.406;2023-07-29T12:34:37;99595.09;;;36.63;33.38
6349;BME280;3207;42.648;23.406;2023-07-29T12:37:05;99598.16;;;36.80;32.76
6349;BME280;3207;42.648;23.406;2023-07-29T12:39:33;99594.53;;;36.23;33.84
6349;BME280;3207;42.648;23.406;2023-07-29T12:42:02;99594.56;;;36.42;32.08
6349;BME280;3207;42.648;23.406;2023-07-29T12:44:32;99585.63;;;36.37;32.17
6349;BME280;3207;42.648;23.406;2023-07-29T12:47:00;99574.63;;;35.99;32.82
6349;BME280;3207;42.648;23.406;2023-07-29T12:49:28;99587.75;;;35.92;34.54
6349;BME280;3207;42.648;23.406;2023-07-29T12:51:55;99579.09;;;35.90;35.19
6349;BME280;3207;42.648;23.406;2023-07-29T12:54:22;99577.59;;;35.74;35.61
6349;BME280;3207;42.648;23.406;2023-07-29T12:56:49;99573.06;;;35.35;36.37
6349;BME280;3207;42.648;23.406;2023-07-29T12:59:16;99541.94;;;35.12;35.62
6349;BME280;3207;42.648;23.406;2023-07-29T13:01:44;99571.88;;;35.07;36.40
6349;BME280;3207;42.648;23.406;2023-07-29T13:04:11;99569.75;;;34.99;36.94
6349;BME280;3207;42.648;23.406;2023-07-29T13:06:38;99565.91;;;35.44;35.65
6349;BME280;3207;42.648;23.406;2023-07-29T13:09:05;99561.81;;;35.08;36.36
6349;BME280;3207;42.648;23.406;2023-07-29T13:11:32;99562.84;;;34.73;37.21
6349;BME280;3207;42.648;23.406;2023-07-29T13:13:59;99563.69;;;34.68;37.11